Startpagina
METAR-TAF:

METAR-TAF

Vliegvelden :

Satu Mare, Roemenië

Luchthaven Satu Mare

breedte: 47-48N, lengte: 022-53E, hoogte: 123 m

Actueel weer

Dit bericht is 41 minuten geleden gemaakt, om 00:00 UTC
Wind 4 kt uit het noorden
Temperatuur 1°C
Vochtigheid 100%
Druk 1015 hPa
Zicht: 8000 m

METAR: LRSM 220000Z AUTO 35004KT 8000 BKN120/// 01/01 Q1015

Tijdstip: 02:41 (00:41 UTC)

Verwachting

Dit bericht is 10 uur en het 41 minuten geleden gemaakt, om 14:00 UTC
Verwachting geldig van 21 om 15 UTC tot 21 om 24 UTC
Wind 6 kt uit het oostnoordoosten
Zicht 10 km of meer
Gebroken wolken op 4500 ft

TAF: LRSM 211400Z 2115/2124 06006KT 9999 BKN045

Waarnemingen en weersverwachtingen van meer dan 4000 vliegvelden (METAR en TAF).

De beschikbare stations zijn de gele en rode punten op de kaart.

Ga met uw muis naar het station om de naam te zien.

Klik dan om waarnemingen en weersverwachtingen te zien.

kaart wijzigen: klik op de groene knoppen met een zwart kruis om in te zoomen, op de groene knop met een streepje om uit te zoomen of op de groene pijlen voor aangrenzende kaarten.


METAR-TAF: